BLQ weather

Bologna Guglielmo Marconi Airport
Bologna, Emilia-Romagna, Italy

Public forecast

Using degrees Celsius for public forecast. Weather courtesy of forecast.io.

METAR (pilot weather report)

Retrieved 2018/07/22 09:20 UTC (38 minutes ago):

LIPE 220920Z 30005KT 230V030 9999 BKN025 27/20 Q1010

TAF (pilot weather forecast)

Retrieved 2018/07/22 06:00 UTC (4 hours ago):

TAF LIPE 220500Z 2206/2306 VRB05KT 9999 SCT040 TEMPO 2212/2218 TSRA TEMPO 2221/2306 TSRA